sensor_id;sensor_type;location;lat;lon;timestamp;P1;durP1;ratioP1;P2;durP2;ratioP2
14272;SDS011;7220;49.450;11.052;2024-01-16T00:03:10;1.50;;;1.40;;
14272;SDS011;7220;49.450;11.052;2024-01-16T00:07:10;2.03;;;1.93;;
14272;SDS011;7220;49.450;11.052;2024-01-16T00:11:10;1.60;;;1.50;;
14272;SDS011;7220;49.450;11.052;2024-01-16T00:15:11;2.10;;;2.00;;
14272;SDS011;7220;49.450;11.052;2024-01-16T00:19:11;1.63;;;1.53;;
14272;SDS011;7220;49.450;11.052;2024-01-16T00:23:12;2.10;;;1.87;;
14272;SDS011;7220;49.450;11.052;2024-01-16T00:27:12;1.80;;;1.70;;
14272;SDS011;7220;49.450;11.052;2024-01-16T00:31:12;3.27;;;1.73;;
14272;SDS011;7220;49.450;11.052;2024-01-16T00:35:13;1.60;;;1.50;;
14272;SDS011;7220;49.450;11.052;2024-01-16T00:39:13;2.27;;;1.73;;
14272;SDS011;7220;49.450;11.052;2024-01-16T00:43:14;1.73;;;1.63;;
14272;SDS011;7220;49.450;11.052;2024-01-16T00:47:14;2.27;;;1.77;;
14272;SDS011;7220;49.450;11.052;2024-01-16T00:51:14;1.63;;;1.50;;
14272;SDS011;7220;49.450;11.052;2024-01-16T00:55:15;1.90;;;1.80;;
14272;SDS011;7220;49.450;11.052;2024-01-16T00:59:15;3.20;;;2.00;;
14272;SDS011;7220;49.450;11.052;2024-01-16T01:03:16;2.27;;;2.13;;
14272;SDS011;7220;49.450;11.052;2024-01-16T01:07:16;2.20;;;2.07;;
14272;SDS011;7220;49.450;11.052;2024-01-16T01:11:16;2.30;;;2.10;;
14272;SDS011;7220;49.450;11.052;2024-01-16T01:15:17;1.93;;;1.50;;
14272;SDS011;7220;49.450;11.052;2024-01-16T01:19:17;4.03;;;2.10;;
14272;SDS011;7220;49.450;11.052;2024-01-16T01:23:18;1.83;;;1.73;;
14272;SDS011;7220;49.450;11.052;2024-01-16T01:27:18;2.23;;;2.13;;
14272;SDS011;7220;49.450;11.052;2024-01-16T01:31:19;1.87;;;1.77;;
14272;SDS011;7220;49.450;11.052;2024-01-16T01:35:19;2.97;;;2.40;;
14272;SDS011;7220;49.450;11.052;2024-01-16T01:39:20;1.90;;;1.80;;
14272;SDS011;7220;49.450;11.052;2024-01-16T01:43:21;2.00;;;1.90;;
14272;SDS011;7220;49.450;11.052;2024-01-16T01:47:23;2.20;;;1.77;;
14272;SDS011;7220;49.450;11.052;2024-01-16T01:51:24;2.33;;;2.03;;
14272;SDS011;7220;49.450;11.052;2024-01-16T01:55:24;2.77;;;1.93;;
14272;SDS011;7220;49.450;11.052;2024-01-16T01:59:25;3.20;;;1.80;;
14272;SDS011;7220;49.450;11.052;2024-01-16T02:03:26;1.83;;;1.73;;
14272;SDS011;7220;49.450;11.052;2024-01-16T02:07:29;1.90;;;1.77;;
14272;SDS011;7220;49.450;11.052;2024-01-16T02:11:31;1.77;;;1.67;;
14272;SDS011;7220;49.450;11.052;2024-01-16T02:15:31;2.73;;;1.90;;
14272;SDS011;7220;49.450;11.052;2024-01-16T02:19:31;1.97;;;1.87;;
14272;SDS011;7220;49.450;11.052;2024-01-16T02:23:32;2.63;;;1.88;;
14272;SDS011;7220;49.450;11.052;2024-01-16T02:27:33;1.93;;;1.80;;
14272;SDS011;7220;49.450;11.052;2024-01-16T02:31:33;3.13;;;2.10;;
14272;SDS011;7220;49.450;11.052;2024-01-16T02:35:34;2.37;;;2.17;;
14272;SDS011;7220;49.450;11.052;2024-01-16T02:39:34;2.27;;;2.07;;
14272;SDS011;7220;49.450;11.052;2024-01-16T02:43:34;2.30;;;2.10;;
14272;SDS011;7220;49.450;11.052;2024-01-16T02:47:35;3.03;;;2.33;;
14272;SDS011;7220;49.450;11.052;2024-01-16T02:51:35;2.30;;;2.10;;
14272;SDS011;7220;49.450;11.052;2024-01-16T02:55:36;1.57;;;1.50;;
14272;SDS011;7220;49.450;11.052;2024-01-16T02:59:36;2.33;;;1.87;;
14272;SDS011;7220;49.450;11.052;2024-01-16T03:03:36;3.43;;;2.43;;
14272;SDS011;7220;49.450;11.052;2024-01-16T03:07:37;2.63;;;1.93;;
14272;SDS011;7220;49.450;11.052;2024-01-16T03:11:37;2.63;;;1.77;;
14272;SDS011;7220;49.450;11.052;2024-01-16T03:15:37;2.17;;;1.73;;
14272;SDS011;7220;49.450;11.052;2024-01-16T03:19:38;2.80;;;2.37;;
14272;SDS011;7220;49.450;11.052;2024-01-16T03:23:38;2.53;;;2.33;;
14272;SDS011;7220;49.450;11.052;2024-01-16T03:27:39;3.45;;;2.38;;
14272;SDS011;7220;49.450;11.052;2024-01-16T03:31:39;4.30;;;2.67;;
14272;SDS011;7220;49.450;11.052;2024-01-16T03:35:39;2.70;;;2.50;;
14272;SDS011;7220;49.450;11.052;2024-01-16T03:39:40;2.40;;;2.20;;
14272;SDS011;7220;49.450;11.052;2024-01-16T03:43:40;3.83;;;2.10;;
14272;SDS011;7220;49.450;11.052;2024-01-16T03:47:41;3.07;;;2.30;;
14272;SDS011;7220;49.450;11.052;2024-01-16T03:51:41;2.50;;;2.07;;
14272;SDS011;7220;49.450;11.052;2024-01-16T03:55:46;1.77;;;1.60;;
14272;SDS011;7220;49.450;11.052;2024-01-16T03:59:47;2.07;;;1.90;;
14272;SDS011;7220;49.450;11.052;2024-01-16T04:03:47;2.60;;;2.40;;
14272;SDS011;7220;49.450;11.052;2024-01-16T04:07:48;3.13;;;2.20;;
14272;SDS011;7220;49.450;11.052;2024-01-16T04:11:51;2.90;;;2.33;;
14272;SDS011;7220;49.450;11.052;2024-01-16T04:15:52;2.20;;;2.05;;
14272;SDS011;7220;49.450;11.052;2024-01-16T04:19:52;1.90;;;1.80;;
14272;SDS011;7220;49.450;11.052;2024-01-16T04:23:52;2.87;;;2.13;;
14272;SDS011;7220;49.450;11.052;2024-01-16T04:27:53;2.77;;;2.53;;
14272;SDS011;7220;49.450;11.052;2024-01-16T04:31:53;4.70;;;2.03;;
14272;SDS011;7220;49.450;11.052;2024-01-16T04:35:54;2.47;;;2.10;;
14272;SDS011;7220;49.450;11.052;2024-01-16T04:39:54;2.47;;;2.25;;
14272;SDS011;7220;49.450;11.052;2024-01-16T04:43:55;2.50;;;2.33;;
14272;SDS011;7220;49.450;11.052;2024-01-16T04:47:55;1.70;;;1.50;;
14272;SDS011;7220;49.450;11.052;2024-01-16T04:51:55;3.77;;;2.20;;
14272;SDS011;7220;49.450;11.052;2024-01-16T04:55:56;3.77;;;2.17;;
14272;SDS011;7220;49.450;11.052;2024-01-16T04:59:56;3.13;;;2.37;;
14272;SDS011;7220;49.450;11.052;2024-01-16T05:03:56;2.20;;;2.00;;
14272;SDS011;7220;49.450;11.052;2024-01-16T05:07:57;2.10;;;1.93;;
14272;SDS011;7220;49.450;11.052;2024-01-16T05:11:57;2.53;;;1.97;;
14272;SDS011;7220;49.450;11.052;2024-01-16T05:15:58;2.10;;;1.80;;
14272;SDS011;7220;49.450;11.052;2024-01-16T05:19:58;1.93;;;1.83;;
14272;SDS011;7220;49.450;11.052;2024-01-16T05:23:59;3.60;;;2.90;;
14272;SDS011;7220;49.450;11.052;2024-01-16T05:27:59;3.30;;;2.37;;
14272;SDS011;7220;49.450;11.052;2024-01-16T05:32:00;2.10;;;1.90;;
14272;SDS011;7220;49.450;11.052;2024-01-16T05:36:01;2.97;;;2.77;;
14272;SDS011;7220;49.450;11.052;2024-01-16T05:40:02;2.63;;;2.43;;
14272;SDS011;7220;49.450;11.052;2024-01-16T05:44:03;2.97;;;2.30;;
14272;SDS011;7220;49.450;11.052;2024-01-16T05:48:03;2.70;;;2.03;;
14272;SDS011;7220;49.450;11.052;2024-01-16T05:52:07;2.77;;;2.13;;
14272;SDS011;7220;49.450;11.052;2024-01-16T05:56:07;2.70;;;2.13;;
14272;SDS011;7220;49.450;11.052;2024-01-16T06:00:08;2.47;;;2.27;;
14272;SDS011;7220;49.450;11.052;2024-01-16T06:04:08;2.33;;;2.13;;
14272;SDS011;7220;49.450;11.052;2024-01-16T06:08:09;2.10;;;1.90;;
14272;SDS011;7220;49.450;11.052;2024-01-16T06:12:09;1.87;;;1.77;;
14272;SDS011;7220;49.450;11.052;2024-01-16T06:16:09;2.27;;;2.03;;
14272;SDS011;7220;49.450;11.052;2024-01-16T06:20:10;2.73;;;2.53;;
14272;SDS011;7220;49.450;11.052;2024-01-16T06:24:10;2.40;;;2.20;;
14272;SDS011;7220;49.450;11.052;2024-01-16T06:28:11;2.20;;;1.87;;
14272;SDS011;7220;49.450;11.052;2024-01-16T06:32:12;2.33;;;2.23;;
14272;SDS011;7220;49.450;11.052;2024-01-16T06:36:12;3.10;;;2.77;;
14272;SDS011;7220;49.450;11.052;2024-01-16T06:40:12;2.20;;;1.97;;
14272;SDS011;7220;49.450;11.052;2024-01-16T06:44:13;2.20;;;2.03;;
14272;SDS011;7220;49.450;11.052;2024-01-16T06:48:13;2.33;;;2.03;;
14272;SDS011;7220;49.450;11.052;2024-01-16T06:52:13;3.70;;;2.80;;
14272;SDS011;7220;49.450;11.052;2024-01-16T06:56:14;4.63;;;2.07;;
14272;SDS011;7220;49.450;11.052;2024-01-16T07:00:14;3.50;;;2.27;;
14272;SDS011;7220;49.450;11.052;2024-01-16T07:04:15;2.40;;;2.20;;
14272;SDS011;7220;49.450;11.052;2024-01-16T07:08:16;3.20;;;2.40;;
14272;SDS011;7220;49.450;11.052;2024-01-16T07:12:16;2.87;;;2.57;;
14272;SDS011;7220;49.450;11.052;2024-01-16T07:16:16;4.13;;;3.50;;
14272;SDS011;7220;49.450;11.052;2024-01-16T07:20:17;3.70;;;2.30;;
14272;SDS011;7220;49.450;11.052;2024-01-16T07:24:18;2.20;;;2.00;;
14272;SDS011;7220;49.450;11.052;2024-01-16T07:28:19;6.00;;;2.93;;
14272;SDS011;7220;49.450;11.052;2024-01-16T07:32:19;4.07;;;2.43;;
14272;SDS011;7220;49.450;11.052;2024-01-16T07:36:19;3.57;;;2.47;;
14272;SDS011;7220;49.450;11.052;2024-01-16T07:40:20;1.85;;;1.75;;
14272;SDS011;7220;49.450;11.052;2024-01-16T07:44:20;2.33;;;2.20;;
14272;SDS011;7220;49.450;11.052;2024-01-16T07:48:21;2.63;;;2.40;;
14272;SDS011;7220;49.450;11.052;2024-01-16T07:52:22;5.50;;;2.70;;
14272;SDS011;7220;49.450;11.052;2024-01-16T07:56:23;3.00;;;2.23;;
14272;SDS011;7220;49.450;11.052;2024-01-16T08:00:23;3.28;;;2.28;;
14272;SDS011;7220;49.450;11.052;2024-01-16T08:04:24;3.17;;;2.67;;
14272;SDS011;7220;49.450;11.052;2024-01-16T08:08:24;3.43;;;2.27;;
14272;SDS011;7220;49.450;11.052;2024-01-16T08:12:25;4.83;;;2.63;;
14272;SDS011;7220;49.450;11.052;2024-01-16T08:16:25;3.23;;;2.53;;
14272;SDS011;7220;49.450;11.052;2024-01-16T08:20:26;2.40;;;2.23;;
14272;SDS011;7220;49.450;11.052;2024-01-16T08:24:26;2.63;;;2.07;;
14272;SDS011;7220;49.450;11.052;2024-01-16T08:28:27;2.58;;;2.05;;
14272;SDS011;7220;49.450;11.052;2024-01-16T08:32:27;2.40;;;2.20;;
14272;SDS011;7220;49.450;11.052;2024-01-16T08:36:27;2.42;;;2.22;;
14272;SDS011;7220;49.450;11.052;2024-01-16T08:40:28;7.43;;;2.65;;
14272;SDS011;7220;49.450;11.052;2024-01-16T08:44:28;3.85;;;3.33;;
14272;SDS011;7220;49.450;11.052;2024-01-16T08:48:29;5.38;;;2.17;;
14272;SDS011;7220;49.450;11.052;2024-01-16T08:52:29;3.33;;;2.05;;
14272;SDS011;7220;49.450;11.052;2024-01-16T08:56:30;4.18;;;2.55;;
14272;SDS011;7220;49.450;11.052;2024-01-16T09:00:31;2.28;;;2.08;;
14272;SDS011;7220;49.450;11.052;2024-01-16T09:04:31;5.85;;;3.28;;
14272;SDS011;7220;49.450;11.052;2024-01-16T09:08:32;3.40;;;2.75;;
14272;SDS011;7220;49.450;11.052;2024-01-16T09:12:32;3.17;;;2.22;;
14272;SDS011;7220;49.450;11.052;2024-01-16T09:16:33;2.50;;;2.00;;
14272;SDS011;7220;49.450;11.052;2024-01-16T09:20:33;3.63;;;2.90;;
14272;SDS011;7220;49.450;11.052;2024-01-16T09:24:34;3.88;;;2.72;;
14272;SDS011;7220;49.450;11.052;2024-01-16T09:28:35;2.30;;;2.00;;
14272;SDS011;7220;49.450;11.052;2024-01-16T09:32:35;6.15;;;2.40;;
14272;SDS011;7220;49.450;11.052;2024-01-16T09:36:35;4.53;;;2.13;;
14272;SDS011;7220;49.450;11.052;2024-01-16T09:40:36;2.47;;;2.28;;
14272;SDS011;7220;49.450;11.052;2024-01-16T09:44:37;5.18;;;2.78;;
14272;SDS011;7220;49.450;11.052;2024-01-16T09:48:37;3.53;;;1.98;;
14272;SDS011;7220;49.450;11.052;2024-01-16T09:52:38;2.92;;;2.60;;
14272;SDS011;7220;49.450;11.052;2024-01-16T09:56:41;3.90;;;2.40;;
14272;SDS011;7220;49.450;11.052;2024-01-16T10:00:43;3.35;;;1.98;;
14272;SDS011;7220;49.450;11.052;2024-01-16T10:04:44;3.00;;;2.33;;
14272;SDS011;7220;49.450;11.052;2024-01-16T10:08:45;2.10;;;1.88;;
14272;SDS011;7220;49.450;11.052;2024-01-16T10:12:46;3.15;;;2.35;;
14272;SDS011;7220;49.450;11.052;2024-01-16T10:16:56;2.55;;;2.08;;
14272;SDS011;7220;49.450;11.052;2024-01-16T10:21:19;2.30;;;2.10;;
14272;SDS011;7220;49.450;11.052;2024-01-16T10:25:22;3.78;;;2.30;;
14272;SDS011;7220;49.450;11.052;2024-01-16T10:29:22;2.67;;;2.30;;
14272;SDS011;7220;49.450;11.052;2024-01-16T10:33:22;4.50;;;2.30;;
14272;SDS011;7220;49.450;11.052;2024-01-16T10:37:27;2.22;;;1.90;;
14272;SDS011;7220;49.450;11.052;2024-01-16T10:41:28;2.13;;;1.98;;
14272;SDS011;7220;49.450;11.052;2024-01-16T10:45:28;3.95;;;2.60;;
14272;SDS011;7220;49.450;11.052;2024-01-16T10:49:29;2.25;;;2.03;;
14272;SDS011;7220;49.450;11.052;2024-01-16T10:53:33;2.90;;;2.20;;
14272;SDS011;7220;49.450;11.052;2024-01-16T10:57:34;3.63;;;2.63;;
14272;SDS011;7220;49.450;11.052;2024-01-16T11:01:40;3.70;;;2.33;;
14272;SDS011;7220;49.450;11.052;2024-01-16T11:05:45;6.22;;;2.63;;
14272;SDS011;7220;49.450;11.052;2024-01-16T11:09:46;2.45;;;2.25;;
14272;SDS011;7220;49.450;11.052;2024-01-16T11:13:48;2.65;;;2.13;;
14272;SDS011;7220;49.450;11.052;2024-01-16T11:17:50;1.60;;;1.50;;
14272;SDS011;7220;49.450;11.052;2024-01-16T11:21:50;2.08;;;1.90;;
14272;SDS011;7220;49.450;11.052;2024-01-16T11:25:52;6.43;;;1.58;;
14272;SDS011;7220;49.450;11.052;2024-01-16T11:29:52;3.17;;;2.55;;
14272;SDS011;7220;49.450;11.052;2024-01-16T11:33:53;2.15;;;2.03;;
14272;SDS011;7220;49.450;11.052;2024-01-16T11:37:53;2.67;;;2.15;;
14272;SDS011;7220;49.450;11.052;2024-01-16T11:41:57;3.40;;;2.50;;
14272;SDS011;7220;49.450;11.052;2024-01-16T11:45:58;4.20;;;3.08;;
14272;SDS011;7220;49.450;11.052;2024-01-16T11:50:09;2.25;;;2.05;;
14272;SDS011;7220;49.450;11.052;2024-01-16T11:54:10;2.58;;;2.30;;
14272;SDS011;7220;49.450;11.052;2024-01-16T12:02:53;2.65;;;1.95;;
14272;SDS011;7220;49.450;11.052;2024-01-16T12:06:59;2.35;;;2.13;;
14272;SDS011;7220;49.450;11.052;2024-01-16T12:11:00;2.45;;;2.22;;
14272;SDS011;7220;49.450;11.052;2024-01-16T12:15:00;2.17;;;1.98;;
14272;SDS011;7220;49.450;11.052;2024-01-16T12:19:05;2.38;;;1.90;;
14272;SDS011;7220;49.450;11.052;2024-01-16T12:23:06;3.03;;;2.03;;
14272;SDS011;7220;49.450;11.052;2024-01-16T12:27:07;3.30;;;2.30;;
14272;SDS011;7220;49.450;11.052;2024-01-16T12:31:08;3.35;;;1.92;;
14272;SDS011;7220;49.450;11.052;2024-01-16T12:35:08;3.50;;;2.03;;
14272;SDS011;7220;49.450;11.052;2024-01-16T12:39:09;2.60;;;1.98;;
14272;SDS011;7220;49.450;11.052;2024-01-16T12:43:12;2.47;;;2.20;;
14272;SDS011;7220;49.450;11.052;2024-01-16T12:47:15;4.95;;;2.22;;
14272;SDS011;7220;49.450;11.052;2024-01-16T12:51:22;2.65;;;2.35;;
14272;SDS011;7220;49.450;11.052;2024-01-16T12:55:23;2.53;;;2.08;;
14272;SDS011;7220;49.450;11.052;2024-01-16T12:59:26;2.53;;;1.98;;
14272;SDS011;7220;49.450;11.052;2024-01-16T13:03:29;3.22;;;1.90;;
14272;SDS011;7220;49.450;11.052;2024-01-16T13:07:30;2.50;;;2.22;;
14272;SDS011;7220;49.450;11.052;2024-01-16T13:11:40;3.67;;;2.30;;
14272;SDS011;7220;49.450;11.052;2024-01-16T13:15:48;4.22;;;2.33;;
14272;SDS011;7220;49.450;11.052;2024-01-16T13:19:49;1.95;;;1.83;;
14272;SDS011;7220;49.450;11.052;2024-01-16T13:23:50;1.88;;;1.67;;
14272;SDS011;7220;49.450;11.052;2024-01-16T13:27:51;2.50;;;1.70;;
14272;SDS011;7220;49.450;11.052;2024-01-16T13:31:51;4.03;;;2.35;;
14272;SDS011;7220;49.450;11.052;2024-01-16T13:35:55;5.05;;;3.00;;
14272;SDS011;7220;49.450;11.052;2024-01-16T13:39:55;2.83;;;2.30;;
14272;SDS011;7220;49.450;11.052;2024-01-16T13:43:55;2.00;;;1.80;;
14272;SDS011;7220;49.450;11.052;2024-01-16T13:47:56;1.83;;;1.67;;
14272;SDS011;7220;49.450;11.052;2024-01-16T13:51:57;2.22;;;1.70;;
14272;SDS011;7220;49.450;11.052;2024-01-16T13:55:57;1.65;;;1.40;;
14272;SDS011;7220;49.450;11.052;2024-01-16T13:59:58;3.58;;;1.92;;
14272;SDS011;7220;49.450;11.052;2024-01-16T14:03:58;4.18;;;2.30;;
14272;SDS011;7220;49.450;11.052;2024-01-16T14:07:59;1.50;;;1.40;;
14272;SDS011;7220;49.450;11.052;2024-01-16T14:11:59;1.92;;;1.50;;
14272;SDS011;7220;49.450;11.052;2024-01-16T14:16:00;2.72;;;2.08;;
14272;SDS011;7220;49.450;11.052;2024-01-16T14:20:00;2.55;;;1.60;;
14272;SDS011;7220;49.450;11.052;2024-01-16T14:24:01;2.80;;;1.83;;
14272;SDS011;7220;49.450;11.052;2024-01-16T14:28:02;4.18;;;1.42;;
14272;SDS011;7220;49.450;11.052;2024-01-16T14:32:03;2.22;;;1.80;;
14272;SDS011;7220;49.450;11.052;2024-01-16T14:36:04;3.42;;;1.77;;
14272;SDS011;7220;49.450;11.052;2024-01-16T14:40:05;3.97;;;2.28;;
14272;SDS011;7220;49.450;11.052;2024-01-16T14:44:29;1.92;;;1.48;;
14272;SDS011;7220;49.450;11.052;2024-01-16T14:48:29;3.08;;;1.98;;
14272;SDS011;7220;49.450;11.052;2024-01-16T14:52:30;2.08;;;1.88;;
14272;SDS011;7220;49.450;11.052;2024-01-16T14:56:32;2.30;;;1.90;;
14272;SDS011;7220;49.450;11.052;2024-01-16T15:00:33;1.83;;;1.70;;
14272;SDS011;7220;49.450;11.052;2024-01-16T15:04:33;1.92;;;1.60;;
14272;SDS011;7220;49.450;11.052;2024-01-16T15:08:34;1.80;;;1.70;;
14272;SDS011;7220;49.450;11.052;2024-01-16T15:12:34;4.20;;;2.60;;
14272;SDS011;7220;49.450;11.052;2024-01-16T15:16:35;5.20;;;2.25;;
14272;SDS011;7220;49.450;11.052;2024-01-16T15:20:35;2.22;;;1.75;;
14272;SDS011;7220;49.450;11.052;2024-01-16T15:24:35;2.25;;;2.05;;
14272;SDS011;7220;49.450;11.052;2024-01-16T15:28:36;4.28;;;2.78;;
14272;SDS011;7220;49.450;11.052;2024-01-16T15:32:36;1.60;;;1.50;;
14272;SDS011;7220;49.450;11.052;2024-01-16T15:36:37;1.52;;;1.42;;
14272;SDS011;7220;49.450;11.052;2024-01-16T15:44:56;3.30;;;1.70;;
14272;SDS011;7220;49.450;11.052;2024-01-16T15:48:56;1.75;;;1.60;;
14272;SDS011;7220;49.450;11.052;2024-01-16T15:52:57;4.65;;;1.58;;
14272;SDS011;7220;49.450;11.052;2024-01-16T15:56:58;1.08;;;1.08;;
14272;SDS011;7220;49.450;11.052;2024-01-16T16:00:58;1.20;;;1.13;;
14272;SDS011;7220;49.450;11.052;2024-01-16T16:04:59;1.50;;;1.35;;
14272;SDS011;7220;49.450;11.052;2024-01-16T16:08:59;1.40;;;1.30;;
14272;SDS011;7220;49.450;11.052;2024-01-16T16:13:00;1.85;;;1.75;;
14272;SDS011;7220;49.450;11.052;2024-01-16T16:17:01;2.60;;;2.13;;
14272;SDS011;7220;49.450;11.052;2024-01-16T16:21:04;2.25;;;1.70;;
14272;SDS011;7220;49.450;11.052;2024-01-16T16:25:05;2.33;;;2.10;;
14272;SDS011;7220;49.450;11.052;2024-01-16T16:29:07;2.55;;;2.03;;
14272;SDS011;7220;49.450;11.052;2024-01-16T16:33:09;3.10;;;1.77;;
14272;SDS011;7220;49.450;11.052;2024-01-16T16:37:09;4.85;;;2.40;;
14272;SDS011;7220;49.450;11.052;2024-01-16T16:41:10;2.75;;;2.22;;
14272;SDS011;7220;49.450;11.052;2024-01-16T16:45:10;3.80;;;3.30;;
14272;SDS011;7220;49.450;11.052;2024-01-16T16:49:11;3.03;;;2.70;;
14272;SDS011;7220;49.450;11.052;2024-01-16T16:53:12;3.72;;;2.22;;
14272;SDS011;7220;49.450;11.052;2024-01-16T16:57:12;3.15;;;2.13;;
14272;SDS011;7220;49.450;11.052;2024-01-16T17:01:13;1.58;;;1.48;;
14272;SDS011;7220;49.450;11.052;2024-01-16T17:05:17;2.72;;;1.77;;
14272;SDS011;7220;49.450;11.052;2024-01-16T17:09:18;2.95;;;2.58;;
14272;SDS011;7220;49.450;11.052;2024-01-16T17:13:19;3.70;;;2.63;;
14272;SDS011;7220;49.450;11.052;2024-01-16T17:17:20;2.35;;;1.88;;
14272;SDS011;7220;49.450;11.052;2024-01-16T17:21:20;1.65;;;1.55;;
14272;SDS011;7220;49.450;11.052;2024-01-16T17:25:21;1.40;;;1.30;;
14272;SDS011;7220;49.450;11.052;2024-01-16T17:29:21;3.35;;;1.60;;
14272;SDS011;7220;49.450;11.052;2024-01-16T17:33:22;3.85;;;2.00;;
14272;SDS011;7220;49.450;11.052;2024-01-16T17:37:22;1.95;;;1.83;;
14272;SDS011;7220;49.450;11.052;2024-01-16T17:41:22;2.25;;;2.08;;
14272;SDS011;7220;49.450;11.052;2024-01-16T17:45:25;2.28;;;2.17;;
14272;SDS011;7220;49.450;11.052;2024-01-16T17:49:26;2.15;;;1.88;;
14272;SDS011;7220;49.450;11.052;2024-01-16T17:53:27;4.07;;;2.88;;
14272;SDS011;7220;49.450;11.052;2024-01-16T17:57:28;2.97;;;2.72;;
14272;SDS011;7220;49.450;11.052;2024-01-16T18:01:28;3.80;;;3.10;;
14272;SDS011;7220;49.450;11.052;2024-01-16T18:05:29;2.78;;;2.28;;
14272;SDS011;7220;49.450;11.052;2024-01-16T18:09:29;2.50;;;2.33;;
14272;SDS011;7220;49.450;11.052;2024-01-16T18:13:30;5.13;;;2.70;;
14272;SDS011;7220;49.450;11.052;2024-01-16T18:17:31;3.53;;;2.38;;
14272;SDS011;7220;49.450;11.052;2024-01-16T18:21:31;3.07;;;1.70;;
14272;SDS011;7220;49.450;11.052;2024-01-16T18:25:35;3.77;;;2.97;;
14272;SDS011;7220;49.450;11.052;2024-01-16T18:29:36;5.18;;;2.65;;
14272;SDS011;7220;49.450;11.052;2024-01-16T18:33:37;2.20;;;2.10;;
14272;SDS011;7220;49.450;11.052;2024-01-16T18:37:41;2.87;;;2.13;;
14272;SDS011;7220;49.450;11.052;2024-01-16T18:41:46;2.23;;;2.10;;
14272;SDS011;7220;49.450;11.052;2024-01-16T18:45:49;2.90;;;2.67;;
14272;SDS011;7220;49.450;11.052;2024-01-16T18:49:51;2.33;;;2.13;;
14272;SDS011;7220;49.450;11.052;2024-01-16T18:53:51;3.58;;;2.65;;
14272;SDS011;7220;49.450;11.052;2024-01-16T18:57:52;4.23;;;2.80;;
14272;SDS011;7220;49.450;11.052;2024-01-16T19:01:59;3.13;;;2.83;;
14272;SDS011;7220;49.450;11.052;2024-01-16T19:05:59;6.37;;;2.87;;
14272;SDS011;7220;49.450;11.052;2024-01-16T19:10:00;3.95;;;2.70;;
14272;SDS011;7220;49.450;11.052;2024-01-16T19:14:01;6.60;;;3.67;;
14272;SDS011;7220;49.450;11.052;2024-01-16T19:18:02;3.00;;;2.63;;
14272;SDS011;7220;49.450;11.052;2024-01-16T19:22:04;4.87;;;4.03;;
14272;SDS011;7220;49.450;11.052;2024-01-16T19:26:07;4.50;;;2.97;;
14272;SDS011;7220;49.450;11.052;2024-01-16T19:30:08;2.57;;;2.37;;
14272;SDS011;7220;49.450;11.052;2024-01-16T19:34:13;3.27;;;2.67;;
14272;SDS011;7220;49.450;11.052;2024-01-16T19:38:14;3.73;;;2.83;;
14272;SDS011;7220;49.450;11.052;2024-01-16T19:42:15;6.07;;;3.50;;
14272;SDS011;7220;49.450;11.052;2024-01-16T19:46:15;9.70;;;3.00;;
14272;SDS011;7220;49.450;11.052;2024-01-16T19:50:15;3.53;;;2.70;;
14272;SDS011;7220;49.450;11.052;2024-01-16T19:54:18;4.00;;;2.73;;
14272;SDS011;7220;49.450;11.052;2024-01-16T19:58:19;3.87;;;3.53;;
14272;SDS011;7220;49.450;11.052;2024-01-16T20:02:19;5.20;;;2.63;;
14272;SDS011;7220;49.450;11.052;2024-01-16T20:06:20;2.67;;;2.47;;
14272;SDS011;7220;49.450;11.052;2024-01-16T20:10:20;5.20;;;2.57;;
14272;SDS011;7220;49.450;11.052;2024-01-16T20:14:22;5.10;;;2.77;;
14272;SDS011;7220;49.450;11.052;2024-01-16T20:18:23;4.90;;;2.97;;
14272;SDS011;7220;49.450;11.052;2024-01-16T20:22:23;5.17;;;3.30;;
14272;SDS011;7220;49.450;11.052;2024-01-16T20:26:23;4.73;;;3.77;;
14272;SDS011;7220;49.450;11.052;2024-01-16T20:30:25;3.17;;;2.87;;
14272;SDS011;7220;49.450;11.052;2024-01-16T20:34:26;10.80;;;3.80;;
14272;SDS011;7220;49.450;11.052;2024-01-16T20:38:26;6.27;;;3.87;;
14272;SDS011;7220;49.450;11.052;2024-01-16T20:42:26;5.57;;;3.70;;
14272;SDS011;7220;49.450;11.052;2024-01-16T20:46:27;4.40;;;4.00;;
14272;SDS011;7220;49.450;11.052;2024-01-16T20:50:28;7.40;;;5.37;;
14272;SDS011;7220;49.450;11.052;2024-01-16T20:54:28;7.30;;;5.63;;
14272;SDS011;7220;49.450;11.052;2024-01-16T20:58:29;5.80;;;3.30;;
14272;SDS011;7220;49.450;11.052;2024-01-16T21:02:29;5.37;;;3.23;;
14272;SDS011;7220;49.450;11.052;2024-01-16T21:06:30;6.60;;;3.97;;
14272;SDS011;7220;49.450;11.052;2024-01-16T21:10:30;3.73;;;2.80;;
14272;SDS011;7220;49.450;11.052;2024-01-16T21:14:31;4.60;;;3.50;;
14272;SDS011;7220;49.450;11.052;2024-01-16T21:18:31;6.83;;;3.23;;
14272;SDS011;7220;49.450;11.052;2024-01-16T21:22:32;4.20;;;2.63;;
14272;SDS011;7220;49.450;11.052;2024-01-16T21:26:32;3.50;;;3.10;;
14272;SDS011;7220;49.450;11.052;2024-01-16T21:30:33;3.97;;;2.50;;
14272;SDS011;7220;49.450;11.052;2024-01-16T21:34:33;2.73;;;2.43;;
14272;SDS011;7220;49.450;11.052;2024-01-16T21:38:34;3.97;;;2.60;;
14272;SDS011;7220;49.450;11.052;2024-01-16T21:42:35;6.93;;;4.17;;
14272;SDS011;7220;49.450;11.052;2024-01-16T21:46:36;3.77;;;2.90;;
14272;SDS011;7220;49.450;11.052;2024-01-16T21:50:38;4.90;;;3.23;;
14272;SDS011;7220;49.450;11.052;2024-01-16T21:54:38;5.33;;;3.47;;
14272;SDS011;7220;49.450;11.052;2024-01-16T21:58:38;5.00;;;3.60;;
14272;SDS011;7220;49.450;11.052;2024-01-16T22:02:39;3.00;;;2.50;;
14272;SDS011;7220;49.450;11.052;2024-01-16T22:06:39;5.83;;;3.00;;
14272;SDS011;7220;49.450;11.052;2024-01-16T22:10:40;5.37;;;3.43;;
14272;SDS011;7220;49.450;11.052;2024-01-16T22:14:41;3.97;;;3.20;;
14272;SDS011;7220;49.450;11.052;2024-01-16T22:18:42;4.10;;;2.70;;
14272;SDS011;7220;49.450;11.052;2024-01-16T22:22:42;3.90;;;2.90;;
14272;SDS011;7220;49.450;11.052;2024-01-16T22:26:43;3.70;;;2.83;;
14272;SDS011;7220;49.450;11.052;2024-01-16T22:30:43;4.90;;;3.53;;
14272;SDS011;7220;49.450;11.052;2024-01-16T22:34:43;2.43;;;2.23;;
14272;SDS011;7220;49.450;11.052;2024-01-16T22:38:44;4.17;;;3.47;;
14272;SDS011;7220;49.450;11.052;2024-01-16T22:42:47;4.10;;;2.30;;
14272;SDS011;7220;49.450;11.052;2024-01-16T22:46:47;4.23;;;2.87;;
14272;SDS011;7220;49.450;11.052;2024-01-16T22:50:48;2.60;;;2.40;;
14272;SDS011;7220;49.450;11.052;2024-01-16T22:54:50;2.90;;;1.93;;
14272;SDS011;7220;49.450;11.052;2024-01-16T22:58:51;3.33;;;2.30;;
14272;SDS011;7220;49.450;11.052;2024-01-16T23:02:51;3.43;;;3.13;;
14272;SDS011;7220;49.450;11.052;2024-01-16T23:06:52;2.93;;;2.73;;
14272;SDS011;7220;49.450;11.052;2024-01-16T23:10:53;2.70;;;2.50;;
14272;SDS011;7220;49.450;11.052;2024-01-16T23:14:53;8.03;;;3.70;;
14272;SDS011;7220;49.450;11.052;2024-01-16T23:18:54;2.33;;;2.13;;
14272;SDS011;7220;49.450;11.052;2024-01-16T23:22:54;2.97;;;2.43;;
14272;SDS011;7220;49.450;11.052;2024-01-16T23:26:55;4.13;;;2.70;;
14272;SDS011;7220;49.450;11.052;2024-01-16T23:30:55;3.47;;;2.83;;
14272;SDS011;7220;49.450;11.052;2024-01-16T23:34:56;2.67;;;2.47;;
14272;SDS011;7220;49.450;11.052;2024-01-16T23:38:56;2.47;;;2.27;;
14272;SDS011;7220;49.450;11.052;2024-01-16T23:42:58;3.17;;;2.13;;
14272;SDS011;7220;49.450;11.052;2024-01-16T23:47:00;2.60;;;2.40;;
14272;SDS011;7220;49.450;11.052;2024-01-16T23:51:00;2.83;;;2.63;;
14272;SDS011;7220;49.450;11.052;2024-01-16T23:55:02;4.30;;;2.27;;
14272;SDS011;7220;49.450;11.052;2024-01-16T23:59:02;3.70;;;2.67;;
